Time;durP1;ratioP1;P1;durP2;ratioP2;P2;SDS_P1;SDS_P2;PMS_P1;PMS_P2;Temp;Humidity;BMP_temperature;BMP_pressure;BME280_temperature;BME280_humidity;BME280_pressure;Samples;Min_cycle;Max_cycle;Signal;HPM_P1;HPM_P2
2023/12/20 00:01:50;;;;;;;;;;;;;;;;;;5049196;28;19929;-69
2023/12/20 00:04:17;;;;;;;;;;;;;;;;;;5049423;28;19976;-69
2023/12/20 00:06:44;;;;;;;;;;;;;;;;;;5051041;28;20354;-70
2023/12/20 00:09:11;;;;;;;;;;;;;;;;;;5052269;28;19925;-70
2023/12/20 00:11:38;;;;;;;;;;;;;;;;;;5053228;28;19924;-70
2023/12/20 00:14:05;;;;;;;;;;;;;;;;;;5042399;28;19932;-70
2023/12/20 00:16:32;;;;;;;;;;;;;;;;;;5046279;28;19925;-71
2023/12/20 00:18:59;;;;;;;;;;;;;;;;;;5052639;28;20035;-71
2023/12/20 00:21:26;;;;;;;;;;;;;;;;;;5041996;28;19986;-70
2023/12/20 00:23:53;;;;;;;;;;;;;;;;;;5054651;28;20031;-71
2023/12/20 00:26:20;;;;;;;;;;;;;;;;;;5053331;28;19970;-72
2023/12/20 00:28:47;;;;;;;;;;;;;;;;;;5053062;28;19925;-72
2023/12/20 00:31:14;;;;;;;;;;;;;;;;;;5048070;28;20003;-72
2023/12/20 00:33:43;;;;;;;;;;;;;;;;;;5046534;28;19979;-71
2023/12/20 00:36:10;;;;;;;;;;;;;;;;;;5053969;28;20371;-71
2023/12/20 00:38:37;;;;;;;;;;;;;;;;;;5053604;28;20003;-71
2023/12/20 00:41:04;;;;;;;;;;;;;;;;;;5053795;28;20318;-71
2023/12/20 00:43:31;;;;;;;;;;;;;;;;;;5053833;28;19929;-72
2023/12/20 00:45:59;;;;;;;;;;;;;;;;;;5054315;28;19925;-72
2023/12/20 00:48:28;;;;;;;;;;;;;;;;;;5053807;28;19925;-71
2023/12/20 00:50:55;;;;;;;;;;;;;;;;;;5054449;28;19929;-72
2023/12/20 00:53:22;;;;;;;;;;;;;;;;;;5040831;28;19926;-71
2023/12/20 00:55:50;;;;;;;;;;;;;;;;;;5043141;28;19976;-71
2023/12/20 00:58:17;;;;;;;;;;;;;;;;;;5048690;28;19963;-71
2023/12/20 01:00:44;;;;;;;;;;;;;;;;;;5053546;28;19925;-71
2023/12/20 01:03:11;;;;;;;;;;;;;;;;;;5042184;28;19975;-72
2023/12/20 01:05:38;;;;;;;;;;;;;;;;;;5051257;28;19983;-71
2023/12/20 01:08:05;;;;;;;;;;;;;;;;;;5050066;28;20296;-72
2023/12/20 01:10:32;;;;;;;;;;;;;;;;;;5038970;28;19979;-71
2023/12/20 01:12:58;;;;;;;;;;;;;;;;;;5052511;28;20246;-72
2023/12/20 01:15:25;;;;;;;;;;;;;;;;;;5053935;28;19975;-72
2023/12/20 01:17:51;;;;;;;;;;;;;;;;;;5052014;28;19924;-71
2023/12/20 01:20:19;;;;;;;;;;;;;;;;;;5052695;28;20016;-71
2023/12/20 01:22:46;;;;;;;;;;;;;;;;;;5051235;28;19978;-71
2023/12/20 01:25:14;;;;;;;;;;;;;;;;;;5053705;28;19987;-71
2023/12/20 01:27:41;;;;;;;;;;;;;;;;;;5052248;28;19928;-71
2023/12/20 01:30:08;;;;;;;;;;;;;;;;;;5052110;28;19925;-71
2023/12/20 01:32:34;;;;;;;;;;;;;;;;;;5051735;28;19968;-71
2023/12/20 01:35:01;;;;;;;;;;;;;;;;;;5052663;28;19979;-71
2023/12/20 01:37:29;;;;;;;;;;;;;;;;;;5052057;28;19982;-71
2023/12/20 01:39:56;;;;;;;;;;;;;;;;;;5052478;28;19947;-71
2023/12/20 01:42:23;;;;;;;;;;;;;;;;;;5053179;28;19925;-70
2023/12/20 01:44:50;;;;;;;;;;;;;;;;;;5051613;28;19932;-71
2023/12/20 01:47:17;;;;;;;;;;;;;;;;;;5044834;28;20391;-70
2023/12/20 01:49:44;;;;;;;;;;;;;;;;;;5051617;28;19975;-69
2023/12/20 01:52:11;;;;;;;;;;;;;;;;;;5046655;28;20030;-69
2023/12/20 01:54:38;;;;;;;;;;;;;;;;;;5050960;28;19925;-71
2023/12/20 01:57:06;;;;;;;;;;;;;;;;;;5052533;28;20357;-72
2023/12/20 01:59:33;;;;;;;;;;;;;;;;;;5050656;28;20440;-69
2023/12/20 02:02:00;;;;;;;;;;;;;;;;;;5051886;28;19974;-69
2023/12/20 02:04:27;;;;;;;;;;;;;;;;;;5046246;28;20281;-71
2023/12/20 02:06:54;;;;;;;;;;;;;;;;;;5052438;28;19925;-72
2023/12/20 02:09:21;;;;;;;;;;;;;;;;;;5050865;28;20007;-71
2023/12/20 02:11:48;;;;;;;;;;;;;;;;;;5052834;28;19925;-70
2023/12/20 02:14:15;;;;;;;;;;;;;;;;;;5051938;28;19983;-70
2023/12/20 02:16:42;;;;;;;;;;;;;;;;;;5041258;28;19925;-70
2023/12/20 02:19:09;;;;;;;;;;;;;;;;;;5042156;28;20341;-71
2023/12/20 02:21:36;;;;;;;;;;;;;;;;;;5052248;28;19925;-71
2023/12/20 02:24:03;;;;;;;;;;;;;;;;;;5035962;28;19979;-71
2023/12/20 02:26:30;;;;;;;;;;;;;;;;;;5050979;28;20371;-71
2023/12/20 02:28:57;;;;;;;;;;;;;;;;;;5050524;28;19929;-71
2023/12/20 02:31:24;;;;;;;;;;;;;;;;;;5051370;28;19929;-71
2023/12/20 02:33:51;;;;;;;;;;;;;;;;;;5046394;28;19962;-71
2023/12/20 02:36:18;;;;;;;;;;;;;;;;;;5050939;28;19979;-71
2023/12/20 02:38:45;;;;;;;;;;;;;;;;;;5052410;28;19968;-71
2023/12/20 02:41:12;;;;;;;;;;;;;;;;;;5049957;28;19975;-70
2023/12/20 02:43:39;;;;;;;;;;;;;;;;;;5051666;28;19966;-71
2023/12/20 02:46:06;;;;;;;;;;;;;;;;;;5051180;28;19979;-71
2023/12/20 02:48:33;;;;;;;;;;;;;;;;;;5043621;28;20350;-71
2023/12/20 02:51:00;;;;;;;;;;;;;;;;;;5052023;28;19925;-70
2023/12/20 02:53:27;;;;;;;;;;;;;;;;;;5051332;28;19972;-71
2023/12/20 02:55:54;;;;;;;;;;;;;;;;;;5050795;28;19925;-72
2023/12/20 02:58:20;;;;;;;;;;;;;;;;;;5051506;28;19924;-72
2023/12/20 03:00:48;;;;;;;;;;;;;;;;;;5046144;28;20346;-71
2023/12/20 03:03:15;;;;;;;;;;;;;;;;;;5050329;28;19978;-71
2023/12/20 03:05:42;;;;;;;;;;;;;;;;;;5041983;28;20110;-72
2023/12/20 03:08:09;;;;;;;;;;;;;;;;;;5048492;28;19925;-71
2023/12/20 03:10:36;;;;;;;;;;;;;;;;;;5051518;28;19925;-71
2023/12/20 03:13:03;;;;;;;;;;;;;;;;;;5050762;28;19948;-73
2023/12/20 03:15:30;;;;;;;;;;;;;;;;;;5051406;28;19925;-72
2023/12/20 03:17:58;;;;;;;;;;;;;;;;;;5048844;28;20268;-72
2023/12/20 03:20:26;;;;;;;;;;;;;;;;;;5050372;28;20326;-72
2023/12/20 03:22:53;;;;;;;;;;;;;;;;;;5051801;28;20015;-71
2023/12/20 03:25:19;;;;;;;;;;;;;;;;;;5050533;28;20005;-71
2023/12/20 03:27:46;;;;;;;;;;;;;;;;;;5041902;28;19986;-71
2023/12/20 03:30:14;;;;;;;;;;;;;;;;;;5044982;28;19979;-71
2023/12/20 03:32:41;;;;;;;;;;;;;;;;;;5051605;28;19924;-71
2023/12/20 03:35:08;;;;;;;;;;;;;;;;;;5043113;28;19925;-71
2023/12/20 03:37:35;;;;;;;;;;;;;;;;;;5042553;28;20285;-71
2023/12/20 03:40:02;;;;;;;;;;;;;;;;;;5049417;28;19940;-70
2023/12/20 03:42:29;;;;;;;;;;;;;;;;;;5053372;28;19925;-70
2023/12/20 03:44:56;;;;;;;;;;;;;;;;;;5055027;28;19982;-70
2023/12/20 03:47:23;;;;;;;;;;;;;;;;;;5051421;28;20402;-70
2023/12/20 03:49:50;;;;;;;;;;;;;;;;;;5054519;28;19968;-70
2023/12/20 03:52:17;;;;;;;;;;;;;;;;;;5050456;28;19925;-69
2023/12/20 03:54:44;;;;;;;;;;;;;;;;;;5055086;28;19932;-70
2023/12/20 03:57:11;;;;;;;;;;;;;;;;;;5054149;28;19929;-69
2023/12/20 03:59:38;;;;;;;;;;;;;;;;;;5055051;28;20403;-69
2023/12/20 04:02:05;;;;;;;;;;;;;;;;;;5044595;28;19929;-69
2023/12/20 04:04:32;;;;;;;;;;;;;;;;;;5049547;28;20304;-69
2023/12/20 04:06:59;;;;;;;;;;;;;;;;;;5053688;28;19924;-70
2023/12/20 04:09:26;;;;;;;;;;;;;;;;;;5055219;28;19983;-70
2023/12/20 04:11:53;;;;;;;;;;;;;;;;;;5048040;28;19976;-70
2023/12/20 04:14:20;;;;;;;;;;;;;;;;;;5047573;28;19925;-71
2023/12/20 04:16:47;;;;;;;;;;;;;;;;;;5051413;28;19925;-70
2023/12/20 04:19:14;;;;;;;;;;;;;;;;;;5054132;28;19925;-70
2023/12/20 04:21:41;;;;;;;;;;;;;;;;;;5054488;28;20334;-70
2023/12/20 04:24:08;;;;;;;;;;;;;;;;;;5051116;28;19932;-70
2023/12/20 04:26:35;;;;;;;;;;;;;;;;;;5044569;28;19924;-71
2023/12/20 04:29:02;;;;;;;;;;;;;;;;;;5051530;28;19924;-71
2023/12/20 04:31:29;;;;;;;;;;;;;;;;;;5054072;28;19932;-70
2023/12/20 04:33:56;;;;;;;;;;;;;;;;;;5040626;28;19929;-69
2023/12/20 04:36:25;;;;;;;;;;;;;;;;;;5047362;28;20002;-69
2023/12/20 04:38:52;;;;;;;;;;;;;;;;;;5038011;28;19959;-68
2023/12/20 04:41:19;;;;;;;;;;;;;;;;;;5034326;28;19925;-69
2023/12/20 04:43:46;;;;;;;;;;;;;;;;;;5037732;28;19985;-69
2023/12/20 04:46:13;;;;;;;;;;;;;;;;;;5053517;28;19971;-69
2023/12/20 04:48:39;;;;;;;;;;;;;;;;;;5053131;28;19932;-70
2023/12/20 04:51:06;;;;;;;;;;;;;;;;;;5053573;28;20017;-69
2023/12/20 04:53:33;;;;;;;;;;;;;;;;;;5046328;28;19978;-69
2023/12/20 04:56:00;;;;;;;;;;;;;;;;;;5033728;28;19972;-69
2023/12/20 04:58:28;;;;;;;;;;;;;;;;;;5052585;28;19971;-70
2023/12/20 05:00:56;;;;;;;;;;;;;;;;;;5051790;28;19937;-71
2023/12/20 05:03:23;;;;;;;;;;;;;;;;;;5053029;28;19978;-71
2023/12/20 05:05:50;;;;;;;;;;;;;;;;;;5052950;28;19929;-71
2023/12/20 05:08:17;;;;;;;;;;;;;;;;;;5051881;28;19928;-72
2023/12/20 05:10:44;;;;;;;;;;;;;;;;;;5046873;28;19972;-71
2023/12/20 05:13:11;;;;;;;;;;;;;;;;;;5053000;28;19994;-72
2023/12/20 05:15:38;;;;;;;;;;;;;;;;;;5052122;28;20029;-70
2023/12/20 05:18:05;;;;;;;;;;;;;;;;;;5037752;28;20395;-70
2023/12/20 05:20:32;;;;;;;;;;;;;;;;;;5053100;28;19929;-70
2023/12/20 05:22:59;;;;;;;;;;;;;;;;;;5048898;28;19964;-70
2023/12/20 05:25:26;;;;;;;;;;;;;;;;;;5043812;28;20331;-70
2023/12/20 05:27:53;;;;;;;;;;;;;;;;;;5050793;28;19971;-70
2023/12/20 05:30:20;;;;;;;;;;;;;;;;;;5052938;28;19975;-70
2023/12/20 05:32:47;;;;;;;;;;;;;;;;;;5034814;28;20451;-70
2023/12/20 05:35:14;;;;;;;;;;;;;;;;;;5051580;28;19925;-71
2023/12/20 05:37:41;;;;;;;;;;;;;;;;;;5050837;28;19924;-77
2023/12/20 05:40:10;;;;;;;;;;;;;;;;;;5037827;28;19925;-71
2023/12/20 05:42:37;;;;;;;;;;;;;;;;;;5052594;28;19925;-71
2023/12/20 05:45:04;;;;;;;;;;;;;;;;;;5051011;28;19978;-71
2023/12/20 05:47:30;;;;;;;;;;;;;;;;;;5052375;28;20375;-71
2023/12/20 05:49:57;;;;;;;;;;;;;;;;;;5053078;28;19925;-70
2023/12/20 05:52:24;;;;;;;;;;;;;;;;;;5043680;28;19925;-70
2023/12/20 05:54:52;;;;;;;;;;;;;;;;;;5048996;28;20314;-70
2023/12/20 05:57:19;;;;;;;;;;;;;;;;;;5052506;28;20276;-70
2023/12/20 05:59:45;;;;;;;;;;;;;;;;;;5050934;28;19974;-70
2023/12/20 06:02:12;;;;;;;;;;;;;;;;;;5051149;28;19929;-71
2023/12/20 06:04:39;;;;;;;;;;;;;;;;;;5051274;28;19924;-70
2023/12/20 06:07:06;;;;;;;;;;;;;;;;;;5051368;28;19987;-71
2023/12/20 06:09:33;;;;;;;;;;;;;;;;;;5052093;28;20041;-70
2023/12/20 06:12:00;;;;;;;;;;;;;;;;;;5049898;28;19925;-69
2023/12/20 06:14:27;;;;;;;;;;;;;;;;;;5049705;28;20010;-69
2023/12/20 06:16:54;;;;;;;;;;;;;;;;;;5044847;28;19978;-69
2023/12/20 06:19:21;;;;;;;;;;;;;;;;;;5051053;28;20342;-69
2023/12/20 06:21:48;;;;;;;;;;;;;;;;;;5050461;28;19979;-69
2023/12/20 06:24:15;;;;;;;;;;;;;;;;;;5046084;28;20006;-70
2023/12/20 06:26:42;;;;;;;;;;;;;;;;;;5035521;28;19925;-70
2023/12/20 06:29:09;;;;;;;;;;;;;;;;;;5043945;28;19925;-70
2023/12/20 06:31:36;;;;;;;;;;;;;;;;;;5049897;28;19925;-70
2023/12/20 06:34:03;;;;;;;;;;;;;;;;;;5048273;28;20478;-71
2023/12/20 06:36:30;;;;;;;;;;;;;;;;;;5048886;28;19925;-70
2023/12/20 06:38:57;;;;;;;;;;;;;;;;;;5050706;28;19939;-70
2023/12/20 06:41:25;;;;;;;;;;;;;;;;;;5051744;28;19929;-70
2023/12/20 06:43:52;;;;;;;;;;;;;;;;;;5046605;28;19933;-70
2023/12/20 06:46:20;;;;;;;;;;;;;;;;;;5050774;28;19968;-70
2023/12/20 06:48:47;;;;;;;;;;;;;;;;;;5049390;28;20358;-70
2023/12/20 06:51:14;;;;;;;;;;;;;;;;;;5047730;28;19925;-70
2023/12/20 06:53:41;;;;;;;;;;;;;;;;;;5046799;28;20342;-70
2023/12/20 06:56:08;;;;;;;;;;;;;;;;;;5043086;28;19981;-70
2023/12/20 06:58:36;;;;;;;;;;;;;;;;;;5049615;28;19979;-69
2023/12/20 07:01:04;;;;;;;;;;;;;;;;;;5048898;28;19931;-69
2023/12/20 07:03:31;;;;;;;;;;;;;;;;;;5048197;28;19925;-70
2023/12/20 07:05:58;;;;;;;;;;;;;;;;;;5049677;28;19925;-70
2023/12/20 07:08:25;;;;;;;;;;;;;;;;;;5049531;28;19924;-69
2023/12/20 07:10:52;;;;;;;;;;;;;;;;;;5050410;28;20300;-70
2023/12/20 07:13:19;;;;;;;;;;;;;;;;;;5046740;28;19979;-70
2023/12/20 07:15:46;;;;;;;;;;;;;;;;;;5049691;28;19968;-69
2023/12/20 07:18:13;;;;;;;;;;;;;;;;;;5052807;28;20033;-69
2023/12/20 07:20:40;;;;;;;;;;;;;;;;;;5052535;28;20070;-66
2023/12/20 07:23:07;;;;;;;;;;;;;;;;;;5050953;28;20363;-66
2023/12/20 07:25:34;;;;;;;;;;;;;;;;;;5050468;28;19929;-67
2023/12/20 07:28:01;;;;;;;;;;;;;;;;;;5054065;28;19925;-69
2023/12/20 07:30:28;;;;;;;;;;;;;;;;;;5051434;28;20299;-70
2023/12/20 07:32:55;;;;;;;;;;;;;;;;;;5052809;28;19978;-69
2023/12/20 07:35:22;;;;;;;;;;;;;;;;;;5036794;28;19930;-71
2023/12/20 07:37:49;;;;;;;;;;;;;;;;;;5053478;28;19986;-70
2023/12/20 07:40:16;;;;;;;;;;;;;;;;;;5051970;28;19964;-69
2023/12/20 07:42:43;;;;;;;;;;;;;;;;;;5045198;28;19937;-69
2023/12/20 07:45:11;;;;;;;;;;;;;;;;;;5054015;28;19925;-70
2023/12/20 07:47:38;;;;;;;;;;;;;;;;;;5034818;28;19980;-73
2023/12/20 07:50:05;;;;;;;;;;;;;;;;;;5047566;28;19932;-71
2023/12/20 07:52:32;;;;;;;;;;;;;;;;;;5053424;28;19983;-71
2023/12/20 07:54:59;;;;;;;;;;;;;;;;;;5054020;28;20457;-71
2023/12/20 07:57:26;;;;;;;;;;;;;;;;;;5048279;28;19991;-70
2023/12/20 07:59:53;;;;;;;;;;;;;;;;;;5040099;28;20030;-70
2023/12/20 08:02:20;;;;;;;;;;;;;;;;;;5051821;28;19980;-71
2023/12/20 08:04:47;;;;;;;;;;;;;;;;;;5050504;28;19929;-70
2023/12/20 08:07:14;;;;;;;;;;;;;;;;;;5053154;28;19951;-70
2023/12/20 08:09:43;;;;;;;;;;;;;;;;;;5051759;28;20057;-71
2023/12/20 08:12:11;;;;;;;;;;;;;;;;;;5050487;28;19933;-71
2023/12/20 08:14:38;;;;;;;;;;;;;;;;;;5051171;28;20031;-71
2023/12/20 08:17:05;;;;;;;;;;;;;;;;;;5051411;28;20277;-71
2023/12/20 08:19:32;;;;;;;;;;;;;;;;;;5054243;28;19975;-70
2023/12/20 08:21:59;;;;;;;;;;;;;;;;;;5051743;28;20392;-70
2023/12/20 08:24:26;;;;;;;;;;;;;;;;;;5047473;28;19928;-69
2023/12/20 08:26:54;;;;;;;;;;;;;;;;;;5050967;28;19931;-69
2023/12/20 08:29:21;;;;;;;;;;;;;;;;;;5049151;28;19925;-69
2023/12/20 08:31:48;;;;;;;;;;;;;;;;;;5040796;28;19967;-69
2023/12/20 08:34:15;;;;;;;;;;;;;;;;;;5046336;28;19937;-68
2023/12/20 08:36:42;;;;;;;;;;;;;;;;;;5048471;28;20281;-68
2023/12/20 08:39:09;;;;;;;;;;;;;;;;;;5045647;28;19925;-69
2023/12/20 08:41:36;;;;;;;;;;;;;;;;;;5052176;28;19925;-69
2023/12/20 08:44:03;;;;;;;;;;;;;;;;;;5050396;28;20002;-69
2023/12/20 08:46:30;;;;;;;;;;;;;;;;;;5051577;28;19925;-69
2023/12/20 08:48:57;;;;;;;;;;;;;;;;;;5048077;28;19960;-69
2023/12/20 08:51:25;;;;;;;;;;;;;;;;;;5052168;28;19929;-69
2023/12/20 08:53:52;;;;;;;;;;;;;;;;;;5052379;28;20403;-69
2023/12/20 08:56:19;;;;;;;;;;;;;;;;;;5052175;28;19932;-69
2023/12/20 08:58:46;;;;;;;;;;;;;;;;;;5040321;28;19976;-69
2023/12/20 09:01:13;;;;;;;;;;;;;;;;;;5047583;28;20355;-72
2023/12/20 09:03:40;;;;;;;;;;;;;;;;;;5047669;28;20026;-71
2023/12/20 09:06:07;;;;;;;;;;;;;;;;;;5050761;28;19979;-70
2023/12/20 09:08:34;;;;;;;;;;;;;;;;;;5042491;28;19982;-70
2023/12/20 09:11:01;;;;;;;;;;;;;;;;;;5048645;28;19925;-70
2023/12/20 09:13:28;;;;;;;;;;;;;;;;;;5051445;28;19975;-69
2023/12/20 09:15:56;;;;;;;;;;;;;;;;;;5043508;28;19976;-69
2023/12/20 09:18:23;;;;;;;;;;;;;;;;;;5049935;28;20082;-69
2023/12/20 09:20:50;;;;;;;;;;;;;;;;;;5050816;28;20564;-69
2023/12/20 09:23:18;;;;;;;;;;;;;;;;;;5051771;28;19933;-69
2023/12/20 09:25:45;;;;;;;;;;;;;;;;;;5047045;28;20016;-70
2023/12/20 09:28:12;;;;;;;;;;;;;;;;;;5049748;28;19932;-68
2023/12/20 09:30:39;;;;;;;;;;;;;;;;;;5048369;28;19976;-68
2023/12/20 09:33:07;;;;;;;;;;;;;;;;;;5046863;28;19936;-68
2023/12/20 09:35:34;;;;;;;;;;;;;;;;;;5046011;28;20054;-68
2023/12/20 09:38:01;;;;;;;;;;;;;;;;;;5045002;28;19939;-69
2023/12/20 09:40:28;;;;;;;;;;;;;;;;;;5044370;28;19971;-68
2023/12/20 09:42:56;;;;;;;;;;;;;;;;;;5043935;28;19986;-71
2023/12/20 09:45:23;;;;;;;;;;;;;;;;;;5043100;28;20320;-69
2023/12/20 09:47:50;;;;;;;;;;;;;;;;;;5041820;28;19933;-70
2023/12/20 09:50:17;;;;;;;;;;;;;;;;;;5046210;28;19932;-69
2023/12/20 09:52:44;;;;;;;;;;;;;;;;;;5052948;28;19932;-69
2023/12/20 09:55:12;;;;;;;;;;;;;;;;;;5050649;28;19925;-69
2023/12/20 09:57:39;;;;;;;;;;;;;;;;;;5050270;28;20280;-70
2023/12/20 10:00:07;;;;;;;;;;;;;;;;;;5050176;28;19929;-70
2023/12/20 10:02:34;;;;;;;;;;;;;;;;;;5051871;28;19964;-69
2023/12/20 10:05:01;;;;;;;;;;;;;;;;;;5051648;28;20011;-69
2023/12/20 10:07:30;;;;;;;;;;;;;;;;;;5051166;28;20028;-69
2023/12/20 10:09:57;;;;;;;;;;;;;;;;;;5051514;28;20384;-70
2023/12/20 10:12:25;;;;;;;;;;;;;;;;;;5050009;28;19932;-70
2023/12/20 10:14:52;;;;;;;;;;;;;;;;;;5046685;28;19937;-70
2023/12/20 10:17:19;;;;;;;;;;;;;;;;;;5036845;28;19932;-70
2023/12/20 10:19:47;;;;;;;;;;;;;;;;;;5043274;28;20376;-70
2023/12/20 10:22:14;;;;;;;;;;;;;;;;;;5044732;28;19971;-70
2023/12/20 10:24:44;;;;;;;;;;;;;;;;;;5043928;28;19924;-69
2023/12/20 10:27:11;;;;;;;;;;;;;;;;;;5048479;28;20011;-70
2023/12/20 10:29:39;;;;;;;;;;;;;;;;;;5047718;28;19936;-70
2023/12/20 10:32:06;;;;;;;;;;;;;;;;;;5042503;28;20376;-70
2023/12/20 10:34:33;;;;;;;;;;;;;;;;;;5048415;28;20307;-70
2023/12/20 10:37:00;;;;;;;;;;;;;;;;;;5051467;28;19925;-69
2023/12/20 10:39:37;;;;;;;;;;;;;;;;;;5039201;28;19978;-70
2023/12/20 10:42:04;;;;;;;;;;;;;;;;;;5046120;28;20403;-69
2023/12/20 10:44:31;;;;;;;;;;;;;;;;;;5047375;28;20303;-70
2023/12/20 10:46:58;;;;;;;;;;;;;;;;;;5046500;28;19931;-70
2023/12/20 10:49:26;;;;;;;;;;;;;;;;;;5040870;28;19948;-69
2023/12/20 10:51:53;;;;;;;;;;;;;;;;;;5050545;28;19931;-69
2023/12/20 10:54:23;;;;;;;;;;;;;;;;;;5044278;28;19925;-69
2023/12/20 10:56:50;;;;;;;;;;;;;;;;;;5038233;28;20575;-69
2023/12/20 10:59:18;;;;;;;;;;;;;;;;;;5037679;28;19935;-69
2023/12/20 11:01:45;;;;;;;;;;;;;;;;;;5042043;28;20008;-68
2023/12/20 11:04:12;;;;;;;;;;;;;;;;;;5038300;28;19932;-68
2023/12/20 11:06:40;;;;;;;;;;;;;;;;;;5032928;28;19991;-69
2023/12/20 11:09:09;;;;;;;;;;;;;;;;;;5049580;28;19925;-69
2023/12/20 11:11:39;;;;;;;;;;;;;;;;;;5039138;28;19933;-68
2023/12/20 11:14:08;;;;;;;;;;;;;;;;;;5041675;28;19931;-68
2023/12/20 11:16:38;;;;;;;;;;;;;;;;;;5047734;28;19933;-68
2023/12/20 11:19:05;;;;;;;;;;;;;;;;;;5045666;28;19975;-69
2023/12/20 11:21:33;;;;;;;;;;;;;;;;;;5043072;28;19933;-69
2023/12/20 11:24:00;;;;;;;;;;;;;;;;;;5043499;28;19932;-74
2023/12/20 11:26:27;;;;;;;;;;;;;;;;;;5047528;28;19932;-73
2023/12/20 11:28:55;;;;;;;;;;;;;;;;;;5039513;28;20568;-73
2023/12/20 11:31:22;;;;;;;;;;;;;;;;;;5042274;28;19925;-73
2023/12/20 11:33:51;;;;;;;;;;;;;;;;;;5039510;28;19984;-73
2023/12/20 11:36:18;;;;;;;;;;;;;;;;;;5045198;28;19925;-74
2023/12/20 11:38:46;;;;;;;;;;;;;;;;;;5043585;28;19925;-69
2023/12/20 11:41:13;;;;;;;;;;;;;;;;;;5043807;28;19967;-69
2023/12/20 11:43:43;;;;;;;;;;;;;;;;;;5046914;28;19974;-69
2023/12/20 11:46:10;;;;;;;;;;;;;;;;;;5043676;28;19968;-71
2023/12/20 11:48:37;;;;;;;;;;;;;;;;;;5045652;28;19948;-69
2023/12/20 11:51:04;;;;;;;;;;;;;;;;;;5039281;28;19931;-69
2023/12/20 11:53:33;;;;;;;;;;;;;;;;;;5042021;28;20360;-69
2023/12/20 11:56:02;;;;;;;;;;;;;;;;;;5048739;28;19933;-69
2023/12/20 11:58:30;;;;;;;;;;;;;;;;;;5044498;28;20387;-70
2023/12/20 12:00:57;;;;;;;;;;;;;;;;;;5034511;28;20463;-69
2023/12/20 12:03:32;;;;;;;;;;;;;;;;;;5050953;28;20397;-70
2023/12/20 12:06:00;;;;;;;;;;;;;;;;;;5047657;28;19991;-70
2023/12/20 12:08:30;;;;;;;;;;;;;;;;;;5053366;28;19929;-69
2023/12/20 12:11:01;;;;;;;;;;;;;;;;;;5053597;28;19924;-70
2023/12/20 12:13:28;;;;;;;;;;;;;;;;;;5051645;28;19968;-70
2023/12/20 12:15:58;;;;;;;;;;;;;;;;;;5045425;28;20038;-70
2023/12/20 12:18:25;;;;;;;;;;;;;;;;;;5041062;28;19925;-70
2023/12/20 12:20:52;;;;;;;;;;;;;;;;;;5050101;28;19924;-69
2023/12/20 12:23:19;;;;;;;;;;;;;;;;;;5049068;28;20280;-68
2023/12/20 12:25:46;;;;;;;;;;;;;;;;;;5048246;28;20387;-69
2023/12/20 12:28:13;;;;;;;;;;;;;;;;;;5046861;28;19924;-68
2023/12/20 12:30:40;;;;;;;;;;;;;;;;;;5046282;28;19933;-68
2023/12/20 12:33:07;;;;;;;;;;;;;;;;;;5045665;28;19933;-68
2023/12/20 12:35:34;;;;;;;;;;;;;;;;;;5043937;28;19937;-68
2023/12/20 12:38:03;;;;;;;;;;;;;;;;;;5046910;28;19935;-69
2023/12/20 12:40:30;;;;;;;;;;;;;;;;;;5048751;28;20067;-69
2023/12/20 12:42:57;;;;;;;;;;;;;;;;;;5041622;28;19947;-69
2023/12/20 12:45:24;;;;;;;;;;;;;;;;;;5038171;28;19925;-69
2023/12/20 12:47:54;;;;;;;;;;;;;;;;;;5036767;28;20478;-73
2023/12/20 12:50:22;;;;;;;;;;;;;;;;;;5049208;28;19928;-72
2023/12/20 12:52:49;;;;;;;;;;;;;;;;;;5044021;28;19924;-72
2023/12/20 12:55:16;;;;;;;;;;;;;;;;;;5047421;28;20281;-72
2023/12/20 12:57:43;;;;;;;;;;;;;;;;;;5042502;28;19929;-72
2023/12/20 13:00:11;;;;;;;;;;;;;;;;;;5051827;28;20350;-73
2023/12/20 13:02:41;;;;;;;;;;;;;;;;;;5048770;28;20307;-72
2023/12/20 13:05:08;;;;;;;;;;;;;;;;;;5045488;28;19958;-72
2023/12/20 13:07:35;;;;;;;;;;;;;;;;;;5049433;28;19931;-69
2023/12/20 13:10:03;;;;;;;;;;;;;;;;;;5042552;28;19925;-69
2023/12/20 13:12:30;;;;;;;;;;;;;;;;;;5040811;28;19933;-69
2023/12/20 13:14:57;;;;;;;;;;;;;;;;;;5042754;28;19933;-69
2023/12/20 13:17:24;;;;;;;;;;;;;;;;;;5045542;28;20284;-68
2023/12/20 13:19:51;;;;;;;;;;;;;;;;;;5043281;28;19924;-69
2023/12/20 13:22:18;;;;;;;;;;;;;;;;;;5038220;28;19948;-69
2023/12/20 13:24:46;;;;;;;;;;;;;;;;;;5046640;28;20311;-68
2023/12/20 13:27:13;;;;;;;;;;;;;;;;;;5040997;28;19924;-69
2023/12/20 13:29:40;;;;;;;;;;;;;;;;;;5040379;28;19924;-68
2023/12/20 13:32:07;;;;;;;;;;;;;;;;;;5043998;28;19964;-67
2023/12/20 13:34:34;;;;;;;;;;;;;;;;;;5050563;28;19925;-68
2023/12/20 13:37:01;;;;;;;;;;;;;;;;;;5045430;28;19990;-68
2023/12/20 13:39:28;;;;;;;;;;;;;;;;;;5043075;28;20330;-67
2023/12/20 13:41:55;;;;;;;;;;;;;;;;;;5043302;28;19949;-68
2023/12/20 13:44:22;;;;;;;;;;;;;;;;;;5049331;28;19983;-68
2023/12/20 13:46:50;;;;;;;;;;;;;;;;;;5048511;28;19999;-69
2023/12/20 13:49:17;;;;;;;;;;;;;;;;;;5042911;28;20467;-68
2023/12/20 13:51:44;;;;;;;;;;;;;;;;;;5050243;28;19932;-68
2023/12/20 13:54:12;;;;;;;;;;;;;;;;;;5051417;28;19932;-69
2023/12/20 13:56:39;;;;;;;;;;;;;;;;;;5048086;28;19993;-69
2023/12/20 13:59:06;;;;;;;;;;;;;;;;;;5046624;28;20403;-69
2023/12/20 14:01:33;;;;;;;;;;;;;;;;;;5046864;28;19925;-68
2023/12/20 14:04:01;;;;;;;;;;;;;;;;;;5050369;28;19932;-69
2023/12/20 14:06:29;;;;;;;;;;;;;;;;;;5050853;28;19967;-68
2023/12/20 14:08:56;;;;;;;;;;;;;;;;;;5044486;28;19928;-69
2023/12/20 14:11:23;;;;;;;;;;;;;;;;;;5040638;28;19929;-69
2023/12/20 14:13:52;;;;;;;;;;;;;;;;;;5042486;28;20721;-69
2023/12/20 14:16:19;;;;;;;;;;;;;;;;;;5042785;28;19925;-69
2023/12/20 14:18:46;;;;;;;;;;;;;;;;;;5038805;28;19931;-70
2023/12/20 14:21:13;;;;;;;;;;;;;;;;;;5040402;28;19932;-69
2023/12/20 14:23:40;;;;;;;;;;;;;;;;;;5047840;28;19987;-69
2023/12/20 14:26:08;;;;;;;;;;;;;;;;;;5038601;28;19929;-69
2023/12/20 14:28:37;;;;;;;;;;;;;;;;;;5047684;28;19933;-70
2023/12/20 14:31:05;;;;;;;;;;;;;;;;;;5045465;28;22325;-69
2023/12/20 14:33:32;;;;;;;;;;;;;;;;;;5037816;28;20323;-69
2023/12/20 14:35:59;;;;;;;;;;;;;;;;;;5047064;28;19924;-69
2023/12/20 14:38:26;;;;;;;;;;;;;;;;;;5050572;28;19924;-70
2023/12/20 14:40:53;;;;;;;;;;;;;;;;;;5047772;28;19928;-69
2023/12/20 14:43:22;;;;;;;;;;;;;;;;;;5050253;28;19925;-69
2023/12/20 14:45:49;;;;;;;;;;;;;;;;;;5047171;28;20407;-69
2023/12/20 14:48:18;;;;;;;;;;;;;;;;;;5049829;28;20023;-69
2023/12/20 14:50:47;;;;;;;;;;;;;;;;;;5043827;28;19924;-69
2023/12/20 14:53:14;;;;;;;;;;;;;;;;;;5039975;28;19964;-69
2023/12/20 14:55:42;;;;;;;;;;;;;;;;;;5047250;28;20014;-69
2023/12/20 14:58:09;;;;;;;;;;;;;;;;;;5036557;28;19929;-69
2023/12/20 15:00:36;;;;;;;;;;;;;;;;;;5034553;28;20351;-68
2023/12/20 15:03:04;;;;;;;;;;;;;;;;;;5047221;28;19980;-68
2023/12/20 15:05:31;;;;;;;;;;;;;;;;;;5050068;28;20280;-69
2023/12/20 15:07:58;;;;;;;;;;;;;;;;;;5049695;28;19924;-68
2023/12/20 15:10:25;;;;;;;;;;;;;;;;;;5044375;28;19946;-69
2023/12/20 15:12:52;;;;;;;;;;;;;;;;;;5043930;28;19933;-68
2023/12/20 15:15:20;;;;;;;;;;;;;;;;;;5042828;28;20303;-68
2023/12/20 15:17:47;;;;;;;;;;;;;;;;;;5043074;28;20015;-68
2023/12/20 15:20:14;;;;;;;;;;;;;;;;;;5041743;28;20441;-69
2023/12/20 15:22:44;;;;;;;;;;;;;;;;;;5043121;28;20002;-69
2023/12/20 15:25:12;;;;;;;;;;;;;;;;;;5047733;28;19925;-69
2023/12/20 15:27:39;;;;;;;;;;;;;;;;;;5039307;28;19924;-68
2023/12/20 15:30:09;;;;;;;;;;;;;;;;;;5043910;28;19933;-68
2023/12/20 15:32:36;;;;;;;;;;;;;;;;;;5040981;28;20104;-68
2023/12/20 15:35:04;;;;;;;;;;;;;;;;;;5041721;28;19925;-68
2023/12/20 15:37:31;;;;;;;;;;;;;;;;;;5045347;28;19979;-68
2023/12/20 15:39:58;;;;;;;;;;;;;;;;;;5054372;28;19935;-69
2023/12/20 15:42:25;;;;;;;;;;;;;;;;;;5050301;28;20558;-68
2023/12/20 15:44:52;;;;;;;;;;;;;;;;;;5049437;28;19925;-69
2023/12/20 15:47:19;;;;;;;;;;;;;;;;;;5049943;28;20449;-69
2023/12/20 15:49:49;;;;;;;;;;;;;;;;;;5042912;28;19932;-68
2023/12/20 15:52:16;;;;;;;;;;;;;;;;;;5042160;28;19928;-68
2023/12/20 15:54:43;;;;;;;;;;;;;;;;;;5045849;28;20422;-69
2023/12/20 15:57:10;;;;;;;;;;;;;;;;;;5047362;28;19986;-69
2023/12/20 15:59:37;;;;;;;;;;;;;;;;;;5051888;28;19932;-69
2023/12/20 16:02:04;;;;;;;;;;;;;;;;;;5049472;28;20442;-68
2023/12/20 16:04:31;;;;;;;;;;;;;;;;;;5046686;28;20322;-69
2023/12/20 16:06:58;;;;;;;;;;;;;;;;;;5041637;28;20362;-69
2023/12/20 16:09:25;;;;;;;;;;;;;;;;;;5046730;28;20335;-68
2023/12/20 16:11:52;;;;;;;;;;;;;;;;;;5052442;28;20006;-69
2023/12/20 16:14:20;;;;;;;;;;;;;;;;;;5050130;28;19937;-69
2023/12/20 16:16:47;;;;;;;;;;;;;;;;;;5052423;28;19928;-69
2023/12/20 16:19:14;;;;;;;;;;;;;;;;;;5042223;28;19926;-69
2023/12/20 16:21:41;;;;;;;;;;;;;;;;;;5053366;28;19925;-69
2023/12/20 16:24:08;;;;;;;;;;;;;;;;;;5044436;28;19925;-69
2023/12/20 16:26:36;;;;;;;;;;;;;;;;;;5051309;28;19925;-69
2023/12/20 16:29:03;;;;;;;;;;;;;;;;;;5047023;28;20027;-68
2023/12/20 16:31:30;;;;;;;;;;;;;;;;;;5048539;28;20291;-69
2023/12/20 16:33:57;;;;;;;;;;;;;;;;;;5052806;28;20000;-68
2023/12/20 16:36:24;;;;;;;;;;;;;;;;;;5052026;28;19925;-68
2023/12/20 16:38:51;;;;;;;;;;;;;;;;;;5049400;28;19925;-69
2023/12/20 16:41:18;;;;;;;;;;;;;;;;;;5049300;28;19929;-69
2023/12/20 16:43:46;;;;;;;;;;;;;;;;;;5043366;28;19932;-68
2023/12/20 16:46:13;;;;;;;;;;;;;;;;;;5049190;28;19924;-68